sensor_id;sensor_type;location;lat;lon;timestamp;pressure;altitude;pressure_sealevel;temperature;humidity
51289;BME280;37372;52.294;5.152;2024-01-15T00:01:45;100384.59;;;0.19;78.22
51289;BME280;37372;52.294;5.152;2024-01-15T00:04:10;100374.03;;;0.12;78.99
51289;BME280;37372;52.294;5.152;2024-01-15T00:06:36;100368.84;;;0.12;78.89
51289;BME280;37372;52.294;5.152;2024-01-15T00:09:02;100373.94;;;0.33;76.28
51289;BME280;37372;52.294;5.152;2024-01-15T00:11:27;100366.78;;;0.26;76.73
51289;BME280;37372;52.294;5.152;2024-01-15T00:13:53;100366.50;;;0.19;76.75
51289;BME280;37372;52.294;5.152;2024-01-15T00:16:19;100355.69;;;0.29;77.02
51289;BME280;37372;52.294;5.152;2024-01-15T00:18:44;100357.56;;;0.33;77.59
51289;BME280;37372;52.294;5.152;2024-01-15T00:21:10;100359.31;;;0.34;75.65
51289;BME280;37372;52.294;5.152;2024-01-15T00:23:35;100353.81;;;0.25;77.28
51289;BME280;37372;52.294;5.152;2024-01-15T00:26:00;100354.81;;;0.28;76.62
51289;BME280;37372;52.294;5.152;2024-01-15T00:28:26;100354.75;;;0.27;76.94
51289;BME280;37372;52.294;5.152;2024-01-15T00:30:52;100359.03;;;0.26;76.89
51289;BME280;37372;52.294;5.152;2024-01-15T00:33:17;100358.50;;;0.35;76.00
51289;BME280;37372;52.294;5.152;2024-01-15T00:35:43;100357.72;;;0.38;76.74
51289;BME280;37372;52.294;5.152;2024-01-15T00:38:09;100356.88;;;0.37;77.91
51289;BME280;37372;52.294;5.152;2024-01-15T00:40:34;100354.03;;;0.31;78.94
51289;BME280;37372;52.294;5.152;2024-01-15T00:42:59;100349.47;;;0.24;79.75
51289;BME280;37372;52.294;5.152;2024-01-15T00:45:25;100343.28;;;0.19;79.97
51289;BME280;37372;52.294;5.152;2024-01-15T00:47:50;100345.66;;;0.14;79.90
51289;BME280;37372;52.294;5.152;2024-01-15T00:50:15;100346.28;;;0.07;80.76
51289;BME280;37372;52.294;5.152;2024-01-15T00:52:44;100347.97;;;0.06;80.58
51289;BME280;37372;52.294;5.152;2024-01-15T00:55:10;100349.19;;;0.16;80.65
51289;BME280;37372;52.294;5.152;2024-01-15T00:57:36;100364.03;;;0.22;79.98
51289;BME280;37372;52.294;5.152;2024-01-15T01:00:01;100342.75;;;0.52;80.49
51289;BME280;37372;52.294;5.152;2024-01-15T01:02:28;100336.00;;;0.57;81.11
51289;BME280;37372;52.294;5.152;2024-01-15T01:04:53;100335.03;;;0.53;81.49
51289;BME280;37372;52.294;5.152;2024-01-15T01:07:19;100327.13;;;0.48;81.56
51289;BME280;37372;52.294;5.152;2024-01-15T01:09:45;100330.19;;;0.38;81.73
51289;BME280;37372;52.294;5.152;2024-01-15T01:12:11;100334.09;;;0.27;82.39
51289;BME280;37372;52.294;5.152;2024-01-15T01:14:37;100333.81;;;0.19;83.17
51289;BME280;37372;52.294;5.152;2024-01-15T01:17:03;100335.28;;;0.12;82.85
51289;BME280;37372;52.294;5.152;2024-01-15T01:19:28;100331.91;;;0.13;83.70
51289;BME280;37372;52.294;5.152;2024-01-15T01:21:55;100323.25;;;0.13;83.40
51289;BME280;37372;52.294;5.152;2024-01-15T01:24:20;100323.31;;;0.14;83.10
51289;BME280;37372;52.294;5.152;2024-01-15T01:26:46;100328.53;;;0.16;82.83
51289;BME280;37372;52.294;5.152;2024-01-15T01:29:12;100315.56;;;0.14;83.12
51289;BME280;37372;52.294;5.152;2024-01-15T01:31:43;100312.81;;;0.10;82.43
51289;BME280;37372;52.294;5.152;2024-01-15T01:34:10;100307.56;;;0.07;82.80
51289;BME280;37372;52.294;5.152;2024-01-15T01:36:36;100310.25;;;0.10;83.04
51289;BME280;37372;52.294;5.152;2024-01-15T01:39:01;100313.06;;;0.16;82.45
51289;BME280;37372;52.294;5.152;2024-01-15T01:41:26;100335.91;;;0.29;81.78
51289;BME280;37372;52.294;5.152;2024-01-15T01:43:52;100348.88;;;0.31;81.83
51289;BME280;37372;52.294;5.152;2024-01-15T01:46:17;100356.28;;;0.22;81.66
51289;BME280;37372;52.294;5.152;2024-01-15T01:48:43;100333.41;;;0.08;83.62
51289;BME280;37372;52.294;5.152;2024-01-15T01:51:09;100341.03;;;0.05;83.86
51289;BME280;37372;52.294;5.152;2024-01-15T01:53:36;100335.09;;;0.08;84.78
51289;BME280;37372;52.294;5.152;2024-01-15T01:56:04;100333.88;;;0.21;84.36
51289;BME280;37372;52.294;5.152;2024-01-15T01:58:32;100333.00;;;0.20;83.96
51289;BME280;37372;52.294;5.152;2024-01-15T02:00:58;100316.56;;;0.18;83.77
51289;BME280;37372;52.294;5.152;2024-01-15T02:03:26;100320.72;;;0.14;83.57
51289;BME280;37372;52.294;5.152;2024-01-15T02:05:52;100321.31;;;0.07;85.24
51289;BME280;37372;52.294;5.152;2024-01-15T02:08:18;100319.41;;;0.02;85.23
51289;BME280;37372;52.294;5.152;2024-01-15T02:10:44;100317.69;;;0.02;85.03
51289;BME280;37372;52.294;5.152;2024-01-15T02:13:09;100316.69;;;-0.02;85.10
51289;BME280;37372;52.294;5.152;2024-01-15T02:15:34;100312.53;;;0.02;84.80
51289;BME280;37372;52.294;5.152;2024-01-15T02:18:01;100317.69;;;0.02;85.75
51289;BME280;37372;52.294;5.152;2024-01-15T02:20:31;100315.13;;;0.02;85.74
51289;BME280;37372;52.294;5.152;2024-01-15T02:23:04;100316.88;;;0.03;85.36
51289;BME280;37372;52.294;5.152;2024-01-15T02:25:30;100312.44;;;-0.01;85.64
51289;BME280;37372;52.294;5.152;2024-01-15T02:27:56;100319.47;;;0.03;85.23
51289;BME280;37372;52.294;5.152;2024-01-15T02:30:22;100315.94;;;0.01;84.71
51289;BME280;37372;52.294;5.152;2024-01-15T02:32:49;100318.41;;;-0.02;84.79
51289;BME280;37372;52.294;5.152;2024-01-15T02:35:14;100312.47;;;0.01;85.22
51289;BME280;37372;52.294;5.152;2024-01-15T02:37:39;100321.03;;;-0.01;84.42
51289;BME280;37372;52.294;5.152;2024-01-15T02:40:06;100312.63;;;0.05;84.88
51289;BME280;37372;52.294;5.152;2024-01-15T02:42:32;100309.28;;;0.08;85.60
51289;BME280;37372;52.294;5.152;2024-01-15T02:44:58;100302.44;;;0.08;85.30
51289;BME280;37372;52.294;5.152;2024-01-15T02:47:23;100305.06;;;0.10;85.02
51289;BME280;37372;52.294;5.152;2024-01-15T02:49:50;100302.50;;;0.10;85.59
51289;BME280;37372;52.294;5.152;2024-01-15T02:52:15;100303.50;;;0.13;85.44
51289;BME280;37372;52.294;5.152;2024-01-15T02:54:44;100299.38;;;0.19;85.90
51289;BME280;37372;52.294;5.152;2024-01-15T02:57:13;100300.53;;;0.27;85.08
51289;BME280;37372;52.294;5.152;2024-01-15T02:59:39;100317.84;;;0.29;84.78
51289;BME280;37372;52.294;5.152;2024-01-15T03:02:05;100318.72;;;0.30;85.01
51289;BME280;37372;52.294;5.152;2024-01-15T03:04:30;100334.97;;;0.27;85.37
51289;BME280;37372;52.294;5.152;2024-01-15T03:06:56;100325.75;;;0.34;85.08
51289;BME280;37372;52.294;5.152;2024-01-15T03:09:22;100332.75;;;0.38;84.50
51289;BME280;37372;52.294;5.152;2024-01-15T03:11:47;100331.94;;;0.39;84.47
51289;BME280;37372;52.294;5.152;2024-01-15T03:14:13;100335.47;;;0.41;84.81
51289;BME280;37372;52.294;5.152;2024-01-15T03:16:49;100340.66;;;0.41;84.36
51289;BME280;37372;52.294;5.152;2024-01-15T03:19:14;100324.69;;;0.29;83.32
51289;BME280;37372;52.294;5.152;2024-01-15T03:21:40;100319.84;;;0.14;84.51
51289;BME280;37372;52.294;5.152;2024-01-15T03:24:06;100324.69;;;0.05;84.38
51289;BME280;37372;52.294;5.152;2024-01-15T03:26:31;100309.66;;;-0.06;84.60
51289;BME280;37372;52.294;5.152;2024-01-15T03:28:56;100302.38;;;-0.16;84.77
51289;BME280;37372;52.294;5.152;2024-01-15T03:31:22;100292.63;;;-0.25;84.91
51289;BME280;37372;52.294;5.152;2024-01-15T03:33:48;100299.19;;;-0.33;85.09
51289;BME280;37372;52.294;5.152;2024-01-15T03:36:14;100282.56;;;-0.40;85.38
51289;BME280;37372;52.294;5.152;2024-01-15T03:38:41;100271.44;;;-0.39;86.05
51289;BME280;37372;52.294;5.152;2024-01-15T03:41:08;100272.19;;;-0.41;87.00
51289;BME280;37372;52.294;5.152;2024-01-15T03:43:33;100265.06;;;-0.48;86.65
51289;BME280;37372;52.294;5.152;2024-01-15T03:45:59;100274.47;;;-0.49;86.33
51289;BME280;37372;52.294;5.152;2024-01-15T03:48:25;100270.16;;;-0.50;86.82
51289;BME280;37372;52.294;5.152;2024-01-15T03:50:50;100259.00;;;-0.49;86.88
51289;BME280;37372;52.294;5.152;2024-01-15T03:53:15;100256.38;;;-0.51;86.82
51289;BME280;37372;52.294;5.152;2024-01-15T03:55:42;100257.13;;;-0.53;86.26
51289;BME280;37372;52.294;5.152;2024-01-15T03:58:07;100251.81;;;-0.58;86.39
51289;BME280;37372;52.294;5.152;2024-01-15T04:00:34;100256.91;;;-0.59;86.57
51289;BME280;37372;52.294;5.152;2024-01-15T04:02:59;100256.66;;;-0.65;86.86
51289;BME280;37372;52.294;5.152;2024-01-15T04:05:25;100256.47;;;-0.70;86.58
51289;BME280;37372;52.294;5.152;2024-01-15T04:07:50;100261.56;;;-0.72;87.38
51289;BME280;37372;52.294;5.152;2024-01-15T04:10:16;100252.03;;;-0.74;87.15
51289;BME280;37372;52.294;5.152;2024-01-15T04:12:41;100250.44;;;-0.71;87.38
51289;BME280;37372;52.294;5.152;2024-01-15T04:15:07;100253.84;;;-0.72;86.79
51289;BME280;37372;52.294;5.152;2024-01-15T04:17:32;100254.97;;;-0.65;87.76
51289;BME280;37372;52.294;5.152;2024-01-15T04:19:59;100254.25;;;-0.61;87.07
51289;BME280;37372;52.294;5.152;2024-01-15T04:22:27;100249.78;;;-0.42;87.42
51289;BME280;37372;52.294;5.152;2024-01-15T04:24:52;100244.16;;;-0.32;86.64
51289;BME280;37372;52.294;5.152;2024-01-15T04:27:18;100245.50;;;-0.19;86.90
51289;BME280;37372;52.294;5.152;2024-01-15T04:29:44;100232.94;;;-0.10;86.27
51289;BME280;37372;52.294;5.152;2024-01-15T04:32:09;100239.09;;;-0.06;85.54
51289;BME280;37372;52.294;5.152;2024-01-15T04:34:35;100242.84;;;0.02;84.59
51289;BME280;37372;52.294;5.152;2024-01-15T04:37:00;100229.66;;;0.19;84.25
51289;BME280;37372;52.294;5.152;2024-01-15T04:39:25;100233.63;;;0.33;83.35
51289;BME280;37372;52.294;5.152;2024-01-15T04:41:51;100227.50;;;0.31;83.44
51289;BME280;37372;52.294;5.152;2024-01-15T04:44:16;100217.00;;;0.26;83.70
51289;BME280;37372;52.294;5.152;2024-01-15T04:46:42;100209.16;;;0.23;83.76
51289;BME280;37372;52.294;5.152;2024-01-15T04:49:09;100211.47;;;0.15;84.67
51289;BME280;37372;52.294;5.152;2024-01-15T04:51:34;100210.69;;;0.18;83.85
51289;BME280;37372;52.294;5.152;2024-01-15T04:54:02;100218.41;;;0.16;83.71
51289;BME280;37372;52.294;5.152;2024-01-15T04:56:28;100235.53;;;0.14;84.45
51289;BME280;37372;52.294;5.152;2024-01-15T04:58:53;100232.88;;;0.13;84.73
51289;BME280;37372;52.294;5.152;2024-01-15T05:01:19;100219.44;;;0.22;83.57
51289;BME280;37372;52.294;5.152;2024-01-15T05:03:44;100221.75;;;0.14;84.20
51289;BME280;37372;52.294;5.152;2024-01-15T05:06:09;100214.19;;;0.19;83.96
51289;BME280;37372;52.294;5.152;2024-01-15T05:08:35;100219.97;;;0.13;84.20
51289;BME280;37372;52.294;5.152;2024-01-15T05:11:00;100224.19;;;0.09;84.45
51289;BME280;37372;52.294;5.152;2024-01-15T05:13:25;100215.50;;;0.07;85.13
51289;BME280;37372;52.294;5.152;2024-01-15T05:15:51;100219.84;;;0.08;85.58
51289;BME280;37372;52.294;5.152;2024-01-15T05:18:17;100230.16;;;0.08;85.60
51289;BME280;37372;52.294;5.152;2024-01-15T05:20:42;100227.63;;;0.10;85.02
51289;BME280;37372;52.294;5.152;2024-01-15T05:23:08;100229.50;;;0.14;84.47
51289;BME280;37372;52.294;5.152;2024-01-15T05:25:33;100234.50;;;0.09;84.20
51289;BME280;37372;52.294;5.152;2024-01-15T05:27:59;100225.72;;;0.04;85.09
51289;BME280;37372;52.294;5.152;2024-01-15T05:30:25;100228.16;;;0.01;84.83
51289;BME280;37372;52.294;5.152;2024-01-15T05:32:50;100234.03;;;-0.03;85.57
51289;BME280;37372;52.294;5.152;2024-01-15T05:35:17;100245.09;;;-0.07;85.65
51289;BME280;37372;52.294;5.152;2024-01-15T05:37:44;100244.03;;;-0.12;86.03
51289;BME280;37372;52.294;5.152;2024-01-15T05:40:13;100245.47;;;-0.21;85.38
51289;BME280;37372;52.294;5.152;2024-01-15T05:42:40;100239.34;;;-0.23;85.07
51289;BME280;37372;52.294;5.152;2024-01-15T05:45:06;100243.34;;;-0.31;85.41
51289;BME280;37372;52.294;5.152;2024-01-15T05:47:32;100235.50;;;-0.34;85.79
51289;BME280;37372;52.294;5.152;2024-01-15T05:49:59;100231.75;;;-0.42;85.69
51289;BME280;37372;52.294;5.152;2024-01-15T05:52:24;100229.16;;;-0.42;85.60
51289;BME280;37372;52.294;5.152;2024-01-15T05:54:50;100232.94;;;-0.34;85.87
51289;BME280;37372;52.294;5.152;2024-01-15T05:57:16;100234.56;;;-0.36;85.57
51289;BME280;37372;52.294;5.152;2024-01-15T05:59:44;100227.63;;;-0.37;85.99
51289;BME280;37372;52.294;5.152;2024-01-15T06:02:10;100235.22;;;-0.42;85.70
51289;BME280;37372;52.294;5.152;2024-01-15T06:04:36;100227.28;;;-0.46;86.65
51289;BME280;37372;52.294;5.152;2024-01-15T06:07:02;100226.47;;;-0.45;86.88
51289;BME280;37372;52.294;5.152;2024-01-15T06:09:27;100228.34;;;-0.41;86.77
51289;BME280;37372;52.294;5.152;2024-01-15T06:11:53;100225.00;;;-0.39;87.10
51289;BME280;37372;52.294;5.152;2024-01-15T06:14:19;100213.13;;;-0.35;86.79
51289;BME280;37372;52.294;5.152;2024-01-15T06:16:44;100201.94;;;-0.36;86.69
51289;BME280;37372;52.294;5.152;2024-01-15T06:19:10;100201.78;;;-0.39;86.69
51289;BME280;37372;52.294;5.152;2024-01-15T06:21:35;100204.38;;;-0.39;86.57
51289;BME280;37372;52.294;5.152;2024-01-15T06:24:01;100202.47;;;-0.44;86.92
51289;BME280;37372;52.294;5.152;2024-01-15T06:26:27;100209.91;;;-0.52;87.20
51289;BME280;37372;52.294;5.152;2024-01-15T06:28:52;100207.97;;;-0.58;86.26
51289;BME280;37372;52.294;5.152;2024-01-15T06:31:18;100205.44;;;-0.56;86.89
51289;BME280;37372;52.294;5.152;2024-01-15T06:33:43;100203.75;;;-0.56;86.64
51289;BME280;37372;52.294;5.152;2024-01-15T06:36:10;100200.34;;;-0.55;86.46
51289;BME280;37372;52.294;5.152;2024-01-15T06:38:36;100197.97;;;-0.50;87.42
51289;BME280;37372;52.294;5.152;2024-01-15T06:41:01;100205.91;;;-0.44;87.43
51289;BME280;37372;52.294;5.152;2024-01-15T06:43:26;100202.59;;;-0.40;86.98
51289;BME280;37372;52.294;5.152;2024-01-15T06:45:52;100209.53;;;-0.39;87.00
51289;BME280;37372;52.294;5.152;2024-01-15T06:48:21;100228.59;;;-0.35;87.13
51289;BME280;37372;52.294;5.152;2024-01-15T06:50:46;100226.00;;;-0.35;86.93
51289;BME280;37372;52.294;5.152;2024-01-15T06:53:12;100229.75;;;-0.27;85.90
51289;BME280;37372;52.294;5.152;2024-01-15T06:55:38;100223.66;;;-0.29;85.35
51289;BME280;37372;52.294;5.152;2024-01-15T06:58:04;100230.31;;;-0.36;86.07
51289;BME280;37372;52.294;5.152;2024-01-15T07:00:30;100237.84;;;-0.40;85.60
51289;BME280;37372;52.294;5.152;2024-01-15T07:02:56;100228.25;;;-0.44;86.33
51289;BME280;37372;52.294;5.152;2024-01-15T07:05:23;100218.03;;;-0.41;86.23
51289;BME280;37372;52.294;5.152;2024-01-15T07:07:49;100209.44;;;-0.42;86.30
51289;BME280;37372;52.294;5.152;2024-01-15T07:10:16;100206.47;;;-0.53;86.25
51289;BME280;37372;52.294;5.152;2024-01-15T07:12:44;100206.38;;;-0.54;86.21
51289;BME280;37372;52.294;5.152;2024-01-15T07:15:10;100211.41;;;-0.57;86.67
51289;BME280;37372;52.294;5.152;2024-01-15T07:17:36;100206.38;;;-0.54;86.82
51289;BME280;37372;52.294;5.152;2024-01-15T07:20:08;100206.56;;;-0.49;87.17
51289;BME280;37372;52.294;5.152;2024-01-15T07:22:35;100210.19;;;-0.44;87.49
51289;BME280;37372;52.294;5.152;2024-01-15T07:25:00;100218.94;;;-0.41;86.94
51289;BME280;37372;52.294;5.152;2024-01-15T07:27:26;100232.69;;;-0.40;87.29
51289;BME280;37372;52.294;5.152;2024-01-15T07:29:52;100237.97;;;-0.37;86.72
51289;BME280;37372;52.294;5.152;2024-01-15T07:32:17;100222.63;;;-0.34;86.72
51289;BME280;37372;52.294;5.152;2024-01-15T07:34:43;100216.09;;;-0.24;85.85
51289;BME280;37372;52.294;5.152;2024-01-15T07:37:09;100209.06;;;-0.28;85.75
51289;BME280;37372;52.294;5.152;2024-01-15T07:39:34;100211.53;;;-0.31;85.07
51289;BME280;37372;52.294;5.152;2024-01-15T07:42:00;100201.84;;;-0.37;85.10
51289;BME280;37372;52.294;5.152;2024-01-15T07:44:26;100186.94;;;-0.46;85.51
51289;BME280;37372;52.294;5.152;2024-01-15T07:46:51;100192.72;;;-0.52;85.80
51289;BME280;37372;52.294;5.152;2024-01-15T07:49:17;100199.34;;;-0.58;86.39
51289;BME280;37372;52.294;5.152;2024-01-15T07:51:42;100200.88;;;-0.63;86.21
51289;BME280;37372;52.294;5.152;2024-01-15T07:54:09;100200.81;;;-0.65;86.81
51289;BME280;37372;52.294;5.152;2024-01-15T07:56:56;100200.06;;;-0.62;87.19
51289;BME280;37372;52.294;5.152;2024-01-15T07:59:23;100194.91;;;-0.62;87.00
51289;BME280;37372;52.294;5.152;2024-01-15T08:01:48;100205.56;;;-0.53;87.33
51289;BME280;37372;52.294;5.152;2024-01-15T08:04:14;100212.81;;;-0.43;86.76
51289;BME280;37372;52.294;5.152;2024-01-15T08:06:40;100225.06;;;-0.37;86.62
51289;BME280;37372;52.294;5.152;2024-01-15T08:09:06;100255.34;;;-0.33;86.25
51289;BME280;37372;52.294;5.152;2024-01-15T08:11:34;100263.06;;;-0.33;85.67
51289;BME280;37372;52.294;5.152;2024-01-15T08:13:59;100247.75;;;-0.28;85.07
51289;BME280;37372;52.294;5.152;2024-01-15T08:16:25;100232.03;;;-0.35;85.09
51289;BME280;37372;52.294;5.152;2024-01-15T08:18:50;100228.59;;;-0.35;85.73
51289;BME280;37372;52.294;5.152;2024-01-15T08:21:16;100224.97;;;-0.40;85.65
51289;BME280;37372;52.294;5.152;2024-01-15T08:23:43;100218.84;;;-0.42;85.52
51289;BME280;37372;52.294;5.152;2024-01-15T08:26:08;100218.63;;;-0.48;85.06
51289;BME280;37372;52.294;5.152;2024-01-15T08:28:34;100209.91;;;-0.52;85.36
51289;BME280;37372;52.294;5.152;2024-01-15T08:30:59;100199.81;;;-0.46;85.24
51289;BME280;37372;52.294;5.152;2024-01-15T08:33:25;100192.72;;;-0.52;85.61
51289;BME280;37372;52.294;5.152;2024-01-15T08:35:54;100191.69;;;-0.57;84.84
51289;BME280;37372;52.294;5.152;2024-01-15T08:38:20;100205.59;;;-0.52;85.91
51289;BME280;37372;52.294;5.152;2024-01-15T08:40:45;100202.50;;;-0.43;85.46
51289;BME280;37372;52.294;5.152;2024-01-15T08:43:10;100204.50;;;-0.36;85.17
51289;BME280;37372;52.294;5.152;2024-01-15T08:45:36;100205.03;;;-0.20;84.67
51289;BME280;37372;52.294;5.152;2024-01-15T08:48:01;100195.81;;;-0.13;84.32
51289;BME280;37372;52.294;5.152;2024-01-15T08:50:27;100212.25;;;-0.11;84.57
51289;BME280;37372;52.294;5.152;2024-01-15T08:52:54;100213.41;;;-0.03;85.11
51289;BME280;37372;52.294;5.152;2024-01-15T08:55:19;100217.13;;;0.05;84.63
51289;BME280;37372;52.294;5.152;2024-01-15T08:57:48;100206.81;;;0.05;83.93
51289;BME280;37372;52.294;5.152;2024-01-15T09:00:14;100209.94;;;-0.04;83.30
51289;BME280;37372;52.294;5.152;2024-01-15T09:02:40;100208.13;;;-0.06;83.84
51289;BME280;37372;52.294;5.152;2024-01-15T09:05:06;100200.84;;;-0.18;84.07
51289;BME280;37372;52.294;5.152;2024-01-15T09:07:35;100208.28;;;-0.26;84.78
51289;BME280;37372;52.294;5.152;2024-01-15T09:10:01;100201.31;;;-0.28;84.97
51289;BME280;37372;52.294;5.152;2024-01-15T09:12:27;100199.56;;;-0.29;84.88
51289;BME280;37372;52.294;5.152;2024-01-15T09:14:58;100203.75;;;-0.33;85.46
51289;BME280;37372;52.294;5.152;2024-01-15T09:17:24;100205.38;;;-0.35;84.95
51289;BME280;37372;52.294;5.152;2024-01-15T09:19:53;100210.47;;;-0.37;85.19
51289;BME280;37372;52.294;5.152;2024-01-15T09:22:47;100205.47;;;-0.32;85.01
51289;BME280;37372;52.294;5.152;2024-01-15T09:25:13;100210.78;;;-0.29;85.42
51289;BME280;37372;52.294;5.152;2024-01-15T09:27:39;100204.34;;;-0.16;85.88
51289;BME280;37372;52.294;5.152;2024-01-15T09:30:04;100208.25;;;-0.03;85.82
51289;BME280;37372;52.294;5.152;2024-01-15T09:32:30;100207.47;;;-0.01;85.48
51289;BME280;37372;52.294;5.152;2024-01-15T09:34:56;100208.25;;;-0.03;84.65
51289;BME280;37372;52.294;5.152;2024-01-15T09:37:22;100214.53;;;0.05;84.72
51289;BME280;37372;52.294;5.152;2024-01-15T09:39:48;100217.41;;;0.13;84.07
51289;BME280;37372;52.294;5.152;2024-01-15T09:42:15;100223.84;;;0.24;84.83
51289;BME280;37372;52.294;5.152;2024-01-15T09:44:41;100221.09;;;0.45;85.07
51289;BME280;37372;52.294;5.152;2024-01-15T09:47:06;100216.47;;;0.61;84.95
51289;BME280;37372;52.294;5.152;2024-01-15T09:49:32;100209.63;;;0.63;84.27
51289;BME280;37372;52.294;5.152;2024-01-15T09:51:58;100212.72;;;0.53;82.65
51289;BME280;37372;52.294;5.152;2024-01-15T09:54:23;100210.72;;;0.44;83.31
51289;BME280;37372;52.294;5.152;2024-01-15T09:56:50;100210.88;;;0.48;83.94
51289;BME280;37372;52.294;5.152;2024-01-15T09:59:16;100216.78;;;0.70;83.99
51289;BME280;37372;52.294;5.152;2024-01-15T10:01:44;100231.13;;;0.88;82.35
51289;BME280;37372;52.294;5.152;2024-01-15T10:04:13;100234.72;;;0.93;82.57
51289;BME280;37372;52.294;5.152;2024-01-15T10:06:43;100231.63;;;0.77;80.46
51289;BME280;37372;52.294;5.152;2024-01-15T10:09:12;100231.34;;;0.68;81.19
51289;BME280;37372;52.294;5.152;2024-01-15T10:11:39;100231.25;;;0.65;80.18
51289;BME280;37372;52.294;5.152;2024-01-15T10:14:05;100232.63;;;0.55;80.71
51289;BME280;37372;52.294;5.152;2024-01-15T10:16:32;100220.44;;;0.51;81.50
51289;BME280;37372;52.294;5.152;2024-01-15T10:18:57;100230.63;;;0.46;82.05
51289;BME280;37372;52.294;5.152;2024-01-15T10:21:22;100238.91;;;0.38;83.09
51289;BME280;37372;52.294;5.152;2024-01-15T10:23:49;100236.19;;;0.59;83.30
51289;BME280;37372;52.294;5.152;2024-01-15T10:26:15;100246.47;;;0.83;82.45
51289;BME280;37372;52.294;5.152;2024-01-15T10:28:40;100242.84;;;0.78;81.98
51289;BME280;37372;52.294;5.152;2024-01-15T10:31:06;100241.25;;;0.81;81.68
51289;BME280;37372;52.294;5.152;2024-01-15T10:33:32;100249.13;;;0.85;81.47
51289;BME280;37372;52.294;5.152;2024-01-15T10:35:59;100256.09;;;0.87;82.27
51289;BME280;37372;52.294;5.152;2024-01-15T10:38:26;100259.13;;;1.01;81.31
51289;BME280;37372;52.294;5.152;2024-01-15T10:40:52;100250.66;;;1.07;81.00
51289;BME280;37372;52.294;5.152;2024-01-15T10:43:18;100262.00;;;1.10;78.92
51289;BME280;37372;52.294;5.152;2024-01-15T10:45:48;100274.47;;;1.24;79.63
51289;BME280;37372;52.294;5.152;2024-01-15T10:48:17;100262.78;;;1.08;80.33
51289;BME280;37372;52.294;5.152;2024-01-15T10:50:44;100267.91;;;1.06;80.91
51289;BME280;37372;52.294;5.152;2024-01-15T10:53:12;100271.44;;;0.82;81.08
51289;BME280;37372;52.294;5.152;2024-01-15T10:55:38;100277.94;;;0.71;81.96
51289;BME280;37372;52.294;5.152;2024-01-15T10:58:06;100268.19;;;0.62;81.77
51289;BME280;37372;52.294;5.152;2024-01-15T11:00:33;100266.19;;;0.55;82.13
51289;BME280;37372;52.294;5.152;2024-01-15T11:03:01;100285.78;;;0.48;81.96
51289;BME280;37372;52.294;5.152;2024-01-15T11:05:27;100283.81;;;0.41;82.85
51289;BME280;37372;52.294;5.152;2024-01-15T11:07:56;100283.69;;;0.38;83.30
51289;BME280;37372;52.294;5.152;2024-01-15T11:13:40;100266.88;;;0.49;83.88
51289;BME280;37372;52.294;5.152;2024-01-15T11:16:06;100269.06;;;0.63;83.75
51289;BME280;37372;52.294;5.152;2024-01-15T11:18:36;100272.69;;;0.68;83.59
51289;BME280;37372;52.294;5.152;2024-01-15T11:21:23;100262.19;;;0.89;82.09
51289;BME280;37372;52.294;5.152;2024-01-15T11:34:21;100269.97;;;0.63;81.39
51289;BME280;37372;52.294;5.152;2024-01-15T11:42:03;100276.56;;;0.81;81.22
51289;BME280;37372;52.294;5.152;2024-01-15T11:44:30;100280.84;;;0.80;81.91
51289;BME280;37372;52.294;5.152;2024-01-15T11:47:07;100283.63;;;0.87;81.31
51289;BME280;37372;52.294;5.152;2024-01-15T11:52:20;100290.94;;;1.26;80.67
51289;BME280;37372;52.294;5.152;2024-01-15T12:00:09;100293.38;;;1.48;79.18
51289;BME280;37372;52.294;5.152;2024-01-15T12:02:36;100299.06;;;1.65;78.49
51289;BME280;37372;52.294;5.152;2024-01-15T12:05:01;100294.16;;;1.75;78.58
51289;BME280;37372;52.294;5.152;2024-01-15T12:07:27;100307.06;;;1.73;77.53
51289;BME280;37372;52.294;5.152;2024-01-15T12:09:53;100319.41;;;1.53;77.31
51289;BME280;37372;52.294;5.152;2024-01-15T12:12:29;100323.50;;;1.19;78.71
51289;BME280;37372;52.294;5.152;2024-01-15T12:14:58;100331.94;;;0.88;79.63
51289;BME280;37372;52.294;5.152;2024-01-15T12:17:23;100347.47;;;0.63;80.10
51289;BME280;37372;52.294;5.152;2024-01-15T12:19:49;100345.69;;;0.38;81.43
51289;BME280;37372;52.294;5.152;2024-01-15T12:22:14;100343.84;;;0.11;82.04
51289;BME280;37372;52.294;5.152;2024-01-15T12:24:40;100340.97;;;0.04;81.78
51289;BME280;37372;52.294;5.152;2024-01-15T12:27:06;100339.91;;;-0.02;83.22
51289;BME280;37372;52.294;5.152;2024-01-15T12:29:32;100326.50;;;0.07;83.44
51289;BME280;37372;52.294;5.152;2024-01-15T12:31:58;100319.50;;;0.05;83.65
51289;BME280;37372;52.294;5.152;2024-01-15T12:34:23;100318.03;;;0.11;83.02
51289;BME280;37372;52.294;5.152;2024-01-15T12:36:49;100326.25;;;0.01;83.81
51289;BME280;37372;52.294;5.152;2024-01-15T12:39:14;100314.59;;;0.11;83.46
51289;BME280;37372;52.294;5.152;2024-01-15T12:41:45;100310.00;;;0.04;83.79
51289;BME280;37372;52.294;5.152;2024-01-15T12:44:10;100318.66;;;0.04;83.53
51289;BME280;37372;52.294;5.152;2024-01-15T12:46:36;100327.31;;;0.06;84.59
51289;BME280;37372;52.294;5.152;2024-01-15T12:49:05;100329.94;;;0.08;84.11
51289;BME280;37372;52.294;5.152;2024-01-15T12:51:30;100346.13;;;0.04;83.67
51289;BME280;37372;52.294;5.152;2024-01-15T12:53:55;100353.13;;;0.06;84.99
51289;BME280;37372;52.294;5.152;2024-01-15T12:56:21;100341.03;;;0.05;84.40
51289;BME280;37372;52.294;5.152;2024-01-15T12:58:51;100327.44;;;0.09;84.44
51289;BME280;37372;52.294;5.152;2024-01-15T13:01:16;100328.84;;;0.01;84.71
51289;BME280;37372;52.294;5.152;2024-01-15T13:03:42;100327.44;;;0.09;83.84
51289;BME280;37372;52.294;5.152;2024-01-15T13:06:07;100318.84;;;0.10;83.79
51289;BME280;37372;52.294;5.152;2024-01-15T13:08:33;100328.41;;;0.13;83.87
51289;BME280;37372;52.294;5.152;2024-01-15T13:10:59;100330.38;;;0.19;84.03
51289;BME280;37372;52.294;5.152;2024-01-15T13:13:25;100322.81;;;0.25;83.30
51289;BME280;37372;52.294;5.152;2024-01-15T13:15:50;100334.53;;;0.39;83.75
51289;BME280;37372;52.294;5.152;2024-01-15T13:18:16;100329.88;;;0.53;83.13